Enterprise, Nevada
Current Conditions -  °F | °C
As of 2:56 AM on Saturday 20 Dec 2014 (Local Time) from KHND Reporting Station
Clear Clear  
Wind Chill: 34°   Ceiling: Unl
Heat Index: 39°   Visibility: 10mi
Dew Point: 36°   Wind: 7mph
Humidity: 89%   Direction: 180°S
Pressure: 30.18"   Gusts: NA
Location:  35.8437°N, 115.134°W
Report Text: KHND 201056Z AUTO 18006KT 10SM CLR 04/02 A3018 RMK AO2 SLP225 T00390022 TSNO
Loading
Personal Weather Stations






























Interactive Weather Map New forecast layout! Learn more

10-Day Weather Forecast

Advertisements
Track Severe Weather on mobile